Time;durP1;ratioP1;P1;durP2;ratioP2;P2;SDS_P1;SDS_P2;PMS_P1;PMS_P2;Temp;Humidity;BMP_temperature;BMP_pressure;BME280_temperature;BME280_humidity;BME280_pressure;Samples;Min_cycle;Max_cycle;Signal;HPM_P1;HPM_P2
2022/07/12 00:01:08;;;;;;;;;;;;;;;16.48;77.84;99952.05;1639734;86;21247;-69
2022/07/12 00:03:34;;;;;;;;;;;;;;;16.48;77.90;99954.75;1639551;86;20441;-69
2022/07/12 00:06:01;;;;;;;;;;;;;;;16.48;77.87;99952.05;1636306;86;20142;-68
2022/07/12 00:08:27;;;;;;;;;;;;;;;16.46;77.82;99951.59;1640695;86;20171;-69
2022/07/12 00:10:55;;;;;;;;;;;;;;;16.45;77.79;99954.02;1640026;86;20232;-69
2022/07/12 00:13:21;;;;;;;;;;;;;;;16.45;77.74;99956.72;1639531;86;21159;-69
2022/07/12 00:15:47;;;;;;;;;;;;;;;16.47;77.82;99955.87;1640252;86;20150;-69
2022/07/12 00:18:14;;;;;;;;;;;;;;;16.51;77.81;99953.34;1645710;86;20171;-70
2022/07/12 00:20:40;;;;;;;;;;;;;;;16.54;77.77;99951.38;1650148;87;20275;-69
2022/07/12 00:23:06;;;;;;;;;;;;;;;16.58;77.83;99953.16;1642462;86;20190;-69
2022/07/12 00:25:33;;;;;;;;;;;;;;;16.58;77.78;99943.72;1638491;86;21224;-69
2022/07/12 00:27:59;;;;;;;;;;;;;;;16.57;77.62;99942.11;1641156;86;20523;-69
2022/07/12 00:30:25;;;;;;;;;;;;;;;16.58;77.51;99942.37;1641212;86;20223;-68
2022/07/12 00:32:52;;;;;;;;;;;;;;;16.59;77.25;99937.21;1640686;86;20740;-68
2022/07/12 00:35:18;;;;;;;;;;;;;;;16.58;77.08;99934.81;1639200;86;20184;-69
2022/07/12 00:37:44;;;;;;;;;;;;;;;16.57;76.94;99943.45;1641432;86;21799;-68
2022/07/12 00:40:11;;;;;;;;;;;;;;;16.59;76.86;99941.25;1640293;86;20142;-69
2022/07/12 00:42:38;;;;;;;;;;;;;;;16.57;76.30;99931.32;1636175;86;20140;-68
2022/07/12 00:45:06;;;;;;;;;;;;;;;16.51;76.08;99935.27;1638476;86;20189;-69
2022/07/12 00:47:37;;;;;;;;;;;;;;;16.47;76.07;99941.59;1641136;86;20440;-68
2022/07/12 00:50:09;;;;;;;;;;;;;;;16.44;76.07;99938.17;1637717;86;21160;-68
2022/07/12 00:52:36;;;;;;;;;;;;;;;16.41;76.02;99934.19;1639899;86;20180;-68
2022/07/12 00:55:05;;;;;;;;;;;;;;;16.38;76.01;99933.47;1637513;86;20462;-69
2022/07/12 00:57:32;;;;;;;;;;;;;;;16.36;76.11;99926.27;1655136;84;20315;-69
2022/07/12 00:59:59;;;;;;;;;;;;;;;16.35;76.21;99934.91;1655647;84;20258;-68
2022/07/12 01:02:25;;;;;;;;;;;;;;;16.36;76.36;99931.09;1657032;84;21116;-68
2022/07/12 01:04:51;;;;;;;;;;;;;;;16.35;76.27;99938.13;1655728;84;20167;-68
2022/07/12 01:07:19;;;;;;;;;;;;;;;16.36;76.29;99941.09;1656550;84;20219;-68
2022/07/12 01:09:46;;;;;;;;;;;;;;;16.34;76.12;99939.23;1656399;84;20243;-68
2022/07/12 01:12:12;;;;;;;;;;;;;;;16.32;76.07;99940.09;1656366;84;20182;-69
2022/07/12 01:14:39;;;;;;;;;;;;;;;16.34;76.04;99946.77;1655856;84;21178;-67
2022/07/12 01:17:07;;;;;;;;;;;;;;;16.33;75.94;99947.88;1655414;84;20148;-68
2022/07/12 01:19:33;;;;;;;;;;;;;;;16.27;75.71;99944.28;1661568;85;20152;-68
2022/07/12 01:21:59;;;;;;;;;;;;;;;16.20;75.74;99950.12;1610816;86;20185;-68
2022/07/12 01:24:26;;;;;;;;;;;;;;;16.14;75.77;99944.05;1656447;84;20199;-69
2022/07/12 01:26:52;;;;;;;;;;;;;;;16.10;75.87;99944.44;1657217;84;22156;-68
2022/07/12 01:29:19;;;;;;;;;;;;;;;16.09;75.96;99942.03;1655624;84;20192;-68
2022/07/12 01:31:45;;;;;;;;;;;;;;;16.04;75.99;99938.93;1656721;84;20477;-67
2022/07/12 01:34:13;;;;;;;;;;;;;;;16.03;76.08;99941.95;1656206;84;20183;-69
2022/07/12 01:36:40;;;;;;;;;;;;;;;16.01;76.02;99946.28;1655676;84;20179;-69
2022/07/12 01:39:06;;;;;;;;;;;;;;;15.93;75.95;99940.30;1656218;84;21255;-68
2022/07/12 01:41:33;;;;;;;;;;;;;;;15.89;75.99;99933.91;1658328;84;20145;-69
2022/07/12 01:43:59;;;;;;;;;;;;;;;15.86;76.07;99940.73;1656358;84;20210;-68
2022/07/12 01:46:25;;;;;;;;;;;;;;;15.82;76.04;99940.30;1655076;84;20177;-69
2022/07/12 01:48:52;;;;;;;;;;;;;;;15.80;75.95;99943.86;1659898;84;20147;-67
2022/07/12 01:51:19;;;;;;;;;;;;;;;15.77;75.81;99943.91;1661748;85;22178;-68
2022/07/12 01:53:46;;;;;;;;;;;;;;;15.76;75.88;99940.17;1661588;86;20150;-68
2022/07/12 01:56:14;;;;;;;;;;;;;;;15.73;75.84;99946.98;1661598;85;20532;-68
2022/07/12 01:58:41;;;;;;;;;;;;;;;15.70;75.81;99950.28;1655897;84;20557;-68
2022/07/12 02:01:09;;;;;;;;;;;;;;;15.66;75.60;99943.38;1655765;84;20494;-67
2022/07/12 02:03:38;;;;;;;;;;;;;;;15.66;75.47;99947.91;1659757;84;20456;-68
2022/07/12 02:06:04;;;;;;;;;;;;;;;15.65;75.42;99947.67;1661544;86;20145;-69
2022/07/12 02:08:31;;;;;;;;;;;;;;;15.63;75.34;99949.33;1658063;84;20147;-68
2022/07/12 02:10:58;;;;;;;;;;;;;;;15.64;75.46;99950.91;1656037;84;20140;-68
2022/07/12 02:13:25;;;;;;;;;;;;;;;15.67;75.50;99950.89;1657658;84;20308;-68
2022/07/12 02:15:52;;;;;;;;;;;;;;;15.67;75.55;99950.34;1654604;84;22176;-69
2022/07/12 02:18:19;;;;;;;;;;;;;;;15.66;75.60;99952.80;1656490;84;20427;-68
2022/07/12 02:20:46;;;;;;;;;;;;;;;15.65;75.69;99956.53;1655503;84;20173;-68
2022/07/12 02:23:13;;;;;;;;;;;;;;;15.64;75.62;99957.64;1655786;84;20531;-69
2022/07/12 02:25:40;;;;;;;;;;;;;;;15.75;75.26;99953.39;1655424;84;20422;-68
2022/07/12 02:28:07;;;;;;;;;;;;;;;15.68;75.16;99951.12;1656653;84;21487;-68
2022/07/12 02:30:34;;;;;;;;;;;;;;;15.59;75.24;99955.06;1660325;84;20160;-68
2022/07/12 02:33:00;;;;;;;;;;;;;;;15.53;75.30;99958.17;1661749;86;20156;-69
2022/07/12 02:35:27;;;;;;;;;;;;;;;15.52;75.38;99969.49;1661352;84;20441;-68
2022/07/12 02:37:53;;;;;;;;;;;;;;;15.48;75.19;99963.92;1657600;84;20156;-68
2022/07/12 02:43:05;;;;;;;;;;;;;;;15.51;75.44;99975.19;1658523;84;20147;-69
2022/07/12 02:45:31;;;;;;;;;;;;;;;15.50;75.36;99971.71;1657014;84;20143;-69
2022/07/12 02:47:58;;;;;;;;;;;;;;;15.49;75.29;99978.17;1661741;85;20531;-70
2022/07/12 02:50:24;;;;;;;;;;;;;;;15.48;75.13;99983.32;1661454;86;20207;-69
2022/07/12 02:52:51;;;;;;;;;;;;;;;15.45;75.15;99982.58;1660194;85;21045;-69
2022/07/12 02:55:17;;;;;;;;;;;;;;;15.43;74.97;99987.45;1658685;86;20154;-69
2022/07/12 02:57:44;;;;;;;;;;;;;;;15.40;74.94;99982.16;1664433;86;20143;-68
2022/07/12 03:00:12;;;;;;;;;;;;;;;15.39;74.98;99980.54;1663748;86;20174;-68
2022/07/12 03:02:38;;;;;;;;;;;;;;;15.37;74.92;99988.69;1661710;86;20170;-69
2022/07/12 03:05:06;;;;;;;;;;;;;;;15.35;74.86;99996.26;1661754;86;21194;-69
2022/07/12 03:07:32;;;;;;;;;;;;;;;15.31;74.74;99985.86;1661866;86;20194;-69
2022/07/12 03:09:59;;;;;;;;;;;;;;;15.29;74.85;99992.87;1661771;86;20440;-68
2022/07/12 03:12:25;;;;;;;;;;;;;;;15.30;74.84;99986.41;1661722;86;20141;-68
2022/07/12 03:14:52;;;;;;;;;;;;;;;15.28;74.74;99982.42;1661635;86;20152;-69
2022/07/12 03:17:18;;;;;;;;;;;;;;;15.28;74.91;99987.25;1661810;86;21117;-68
2022/07/12 03:19:45;;;;;;;;;;;;;;;15.32;75.06;99988.23;1661680;86;20175;-69
2022/07/12 03:22:11;;;;;;;;;;;;;;;15.34;74.91;99986.05;1656382;84;20183;-68
2022/07/12 03:24:37;;;;;;;;;;;;;;;15.38;74.84;99987.58;1658610;84;20159;-69
2022/07/12 03:27:04;;;;;;;;;;;;;;;15.42;74.75;99981.84;1661754;86;20156;-70
2022/07/12 03:29:30;;;;;;;;;;;;;;;15.41;74.56;99989.12;1660258;84;21176;-68
2022/07/12 03:31:57;;;;;;;;;;;;;;;15.43;74.27;99984.77;1659081;86;20167;-69
2022/07/12 03:34:23;;;;;;;;;;;;;;;15.46;74.08;99974.74;1657009;84;20179;-69
2022/07/12 03:36:50;;;;;;;;;;;;;;;15.48;74.06;99987.36;1656659;84;20194;-68
2022/07/12 03:39:16;;;;;;;;;;;;;;;15.51;73.90;99981.38;1661681;86;20188;-69
2022/07/12 03:41:43;;;;;;;;;;;;;;;15.55;73.59;99977.52;1658375;84;21857;-68
2022/07/12 03:44:09;;;;;;;;;;;;;;;15.60;73.49;99974.17;1660961;86;20202;-69
2022/07/12 03:46:36;;;;;;;;;;;;;;;15.68;73.45;99982.09;1661320;86;20449;-69
2022/07/12 03:49:02;;;;;;;;;;;;;;;15.71;72.92;99976.89;1657692;84;20196;-69
2022/07/12 03:51:30;;;;;;;;;;;;;;;15.79;72.80;99988.02;1668786;84;20211;-69
2022/07/12 03:53:56;;;;;;;;;;;;;;;15.84;72.36;99978.49;1636793;86;21194;-70
2022/07/12 03:59:08;;;;;;;;;;;;;;;15.88;71.65;99972.73;1639521;86;20256;-69
2022/07/12 04:01:37;;;;;;;;;;;;;;;15.87;71.18;99982.71;1640870;86;20218;-70
2022/07/12 04:04:04;;;;;;;;;;;;;;;15.92;71.34;99985.82;1639975;86;20500;-69
2022/07/12 04:06:33;;;;;;;;;;;;;;;15.95;70.96;99991.95;1622268;86;21211;-70
2022/07/12 04:09:00;;;;;;;;;;;;;;;15.94;70.79;99982.28;1611241;87;20186;-69
2022/07/12 04:11:27;;;;;;;;;;;;;;;15.97;70.89;99985.71;1637997;86;20467;-68
2022/07/12 04:13:55;;;;;;;;;;;;;;;16.02;71.16;99976.14;1653325;85;20138;-68
2022/07/12 04:16:22;;;;;;;;;;;;;;;16.08;71.04;99972.23;1625725;88;20154;-69
2022/07/12 04:18:57;;;;;;;;;;;;;;;16.14;70.32;99989.86;1625830;88;21178;-68
2022/07/12 04:21:41;;;;;;;;;;;;;;;16.43;69.77;99991.30;1649577;87;20960;-69
2022/07/12 04:24:12;;;;;;;;;;;;;;;16.63;69.31;99994.79;1675074;84;20160;-70
2022/07/12 04:26:40;;;;;;;;;;;;;;;16.80;69.10;99996.00;1650164;86;20962;-68
2022/07/12 04:29:19;;;;;;;;;;;;;;;16.95;68.95;100006.93;1604416;85;20519;-69
2022/07/12 04:31:53;;;;;;;;;;;;;;;17.07;68.92;100005.19;1640767;87;21180;-69
2022/07/12 04:34:20;;;;;;;;;;;;;;;17.16;68.07;100002.53;1640885;87;20219;-69
2022/07/12 04:36:58;;;;;;;;;;;;;;;16.99;67.76;100013.28;1664766;84;20138;-69
2022/07/12 04:39:35;;;;;;;;;;;;;;;16.92;67.63;100011.05;1657501;84;20133;-69
2022/07/12 04:42:07;;;;;;;;;;;;;;;16.88;67.57;100018.17;1648311;84;20138;-69
2022/07/12 04:44:46;;;;;;;;;;;;;;;16.86;67.50;100005.55;1667123;84;21260;-69
2022/07/12 04:47:17;;;;;;;;;;;;;;;16.86;67.61;100023.08;1668670;85;20127;-70
2022/07/12 04:49:43;;;;;;;;;;;;;;;16.93;67.37;100023.41;1668913;86;20197;-69
2022/07/12 04:52:10;;;;;;;;;;;;;;;17.00;67.30;100019.70;1668938;86;20147;-69
2022/07/12 04:54:39;;;;;;;;;;;;;;;17.07;66.94;100018.69;1669211;86;20170;-69
2022/07/12 04:57:11;;;;;;;;;;;;;;;17.09;66.29;100031.32;1668874;86;20570;-70
2022/07/12 04:59:41;;;;;;;;;;;;;;;17.13;66.36;100033.39;1668691;86;20489;-69
2022/07/12 05:02:15;;;;;;;;;;;;;;;17.17;66.14;100015.46;1668984;86;20193;-68
2022/07/12 05:04:42;;;;;;;;;;;;;;;17.22;66.15;100023.42;1668791;86;20180;-69
2022/07/12 05:07:13;;;;;;;;;;;;;;;17.30;65.95;100033.43;1668813;86;20173;-68
2022/07/12 05:09:40;;;;;;;;;;;;;;;17.35;65.52;100034.64;1668731;86;21110;-69
2022/07/12 05:12:15;;;;;;;;;;;;;;;17.41;65.26;100037.44;1666039;86;20135;-68
2022/07/12 05:14:49;;;;;;;;;;;;;;;17.42;64.85;100032.83;1668877;86;20245;-69
2022/07/12 05:17:30;;;;;;;;;;;;;;;17.47;65.11;100036.71;1642723;86;20481;-68
2022/07/12 05:20:09;;;;;;;;;;;;;;;17.59;64.91;100036.33;1664548;85;20185;-69
2022/07/12 05:22:42;;;;;;;;;;;;;;;17.63;64.19;100048.64;1669019;86;21937;-68
2022/07/12 05:25:11;;;;;;;;;;;;;;;17.85;63.86;100046.39;1668514;85;20184;-68
2022/07/12 05:27:38;;;;;;;;;;;;;;;17.92;63.35;100033.76;1668794;84;20180;-69
2022/07/12 05:30:06;;;;;;;;;;;;;;;18.01;63.27;100044.80;1660078;86;20243;-69
2022/07/12 05:32:49;;;;;;;;;;;;;;;18.05;62.37;100038.98;1652468;87;20176;-69
2022/07/12 05:35:26;;;;;;;;;;;;;;;17.82;62.28;100038.92;1652133;87;21001;-69
2022/07/12 05:38:10;;;;;;;;;;;;;;;17.88;62.93;100043.06;1652383;87;21687;-67
2022/07/12 05:40:43;;;;;;;;;;;;;;;17.99;62.82;100038.91;1656685;86;20189;-69
2022/07/12 05:43:10;;;;;;;;;;;;;;;18.10;62.77;100046.69;1665961;86;20150;-69
2022/07/12 05:45:36;;;;;;;;;;;;;;;18.22;62.35;100057.66;1668502;86;20185;-68
2022/07/12 05:48:05;;;;;;;;;;;;;;;18.32;62.60;100045.16;1657226;86;21063;-68
2022/07/12 05:50:31;;;;;;;;;;;;;;;18.43;63.04;100038.87;1652227;86;20439;-69
2022/07/12 05:55:42;;;;;;;;;;;;;;;18.68;62.45;100048.00;1668982;86;20168;-67
2022/07/12 05:58:09;;;;;;;;;;;;;;;19.06;60.82;100052.67;1664967;86;20154;-69
2022/07/12 06:00:35;;;;;;;;;;;;;;;19.16;60.56;100051.73;1664071;85;21144;-68
2022/07/12 06:03:01;;;;;;;;;;;;;;;19.19;59.64;100059.77;1663928;86;20492;-68
2022/07/12 06:05:28;;;;;;;;;;;;;;;19.20;59.79;100045.11;1663748;85;20213;-69
2022/07/12 06:07:54;;;;;;;;;;;;;;;19.21;59.38;100056.95;1663756;86;20197;-69
2022/07/12 06:10:22;;;;;;;;;;;;;;;19.27;59.45;100055.42;1547068;84;10000598;-68
2022/07/12 06:12:48;;;;;;;;;;;;;;;19.34;58.84;100054.34;1664171;85;20197;-68
2022/07/12 06:15:14;;;;;;;;;;;;;;;19.37;58.37;100055.83;1652913;84;20185;-68
2022/07/12 06:17:41;;;;;;;;;;;;;;;19.39;58.12;100056.30;1663583;84;20215;-68
2022/07/12 06:20:08;;;;;;;;;;;;;;;19.48;58.60;100059.50;1662974;84;20285;-69
2022/07/12 06:22:34;;;;;;;;;;;;;;;19.61;58.45;100054.40;1663016;84;21140;-69
2022/07/12 06:25:00;;;;;;;;;;;;;;;19.72;57.74;100056.99;1664157;84;20216;-68
2022/07/12 06:27:27;;;;;;;;;;;;;;;19.78;57.52;100059.73;1662668;84;20215;-67
2022/07/12 06:29:53;;;;;;;;;;;;;;;19.89;57.73;100058.20;1662277;84;20152;-68
2022/07/12 06:32:20;;;;;;;;;;;;;;;20.02;56.85;100071.26;1663675;84;20207;-67
2022/07/12 06:34:47;;;;;;;;;;;;;;;20.08;56.17;100062.37;1665551;84;21839;-69
2022/07/12 06:37:14;;;;;;;;;;;;;;;20.09;56.03;100069.36;1667853;84;20527;-69
2022/07/12 06:39:41;;;;;;;;;;;;;;;20.01;55.65;100070.25;1662241;84;20175;-68
2022/07/12 06:42:09;;;;;;;;;;;;;;;20.02;55.08;100076.68;1663527;84;20214;-68
2022/07/12 06:44:37;;;;;;;;;;;;;;;20.03;55.79;100070.13;1663116;84;20446;-68
2022/07/12 06:47:04;;;;;;;;;;;;;;;20.12;55.57;100074.13;1663682;84;21135;-67
2022/07/12 06:49:31;;;;;;;;;;;;;;;20.17;54.96;100083.42;1662886;84;20144;-68
2022/07/12 06:51:58;;;;;;;;;;;;;;;20.20;54.53;100079.23;1662568;84;20151;-67
2022/07/12 06:54:25;;;;;;;;;;;;;;;20.18;54.67;100076.08;1662790;84;20180;-68
2022/07/12 06:56:52;;;;;;;;;;;;;;;20.23;54.48;100084.78;1662963;84;20183;-70
2022/07/12 06:59:18;;;;;;;;;;;;;;;20.31;54.39;100087.20;1671794;84;21128;-67
2022/07/12 07:01:44;;;;;;;;;;;;;;;20.42;54.64;100087.57;1639741;86;20190;-67
2022/07/12 07:04:12;;;;;;;;;;;;;;;20.47;53.63;100081.37;1639733;86;20151;-68
2022/07/12 07:06:39;;;;;;;;;;;;;;;20.59;54.54;100081.98;1655916;84;20924;-67
2022/07/12 07:09:07;;;;;;;;;;;;;;;20.72;53.09;100083.59;1657007;84;20722;-68
2022/07/12 07:11:35;;;;;;;;;;;;;;;20.83;53.14;100089.41;1655337;84;21213;-68
2022/07/12 07:14:04;;;;;;;;;;;;;;;20.87;52.54;100084.87;1656565;84;20140;-69
2022/07/12 07:16:30;;;;;;;;;;;;;;;20.96;52.61;100094.26;1657149;84;20150;-68
2022/07/12 07:18:57;;;;;;;;;;;;;;;21.06;51.99;100091.13;1660367;84;20463;-67
2022/07/12 07:21:24;;;;;;;;;;;;;;;21.19;50.93;100098.14;1661821;86;20155;-67
2022/07/12 07:23:51;;;;;;;;;;;;;;;21.27;50.73;100095.87;1667650;86;21087;-69
2022/07/12 07:26:18;;;;;;;;;;;;;;;21.35;50.51;100102.34;1658697;84;20502;-69
2022/07/12 07:31:29;;;;;;;;;;;;;;;21.50;50.53;100098.94;1656517;84;20242;-68
2022/07/12 07:33:55;;;;;;;;;;;;;;;21.66;49.43;100104.47;1656510;84;20510;-69
2022/07/12 07:36:22;;;;;;;;;;;;;;;21.73;48.75;100105.25;1656225;84;21114;-68
2022/07/12 07:38:48;;;;;;;;;;;;;;;21.73;49.05;100101.17;1655684;84;21127;-68
2022/07/12 07:41:14;;;;;;;;;;;;;;;21.81;49.14;100099.45;1655933;84;20140;-69
2022/07/12 07:43:42;;;;;;;;;;;;;;;21.94;48.41;100107.22;1659445;84;20154;-67
2022/07/12 07:46:08;;;;;;;;;;;;;;;22.04;48.26;100116.83;1661560;86;20146;-67
2022/07/12 07:48:34;;;;;;;;;;;;;;;22.11;47.70;100110.26;1660365;84;21121;-68
2022/07/12 07:51:01;;;;;;;;;;;;;;;22.26;48.00;100099.80;1661777;85;20228;-68
2022/07/12 07:53:29;;;;;;;;;;;;;;;22.44;47.44;100100.51;1661715;86;20151;-67
2022/07/12 07:55:55;;;;;;;;;;;;;;;22.55;46.87;100104.87;1670575;84;20757;-67
2022/07/12 07:58:21;;;;;;;;;;;;;;;22.56;46.61;100092.83;1640805;86;20177;-68
2022/07/12 08:00:51;;;;;;;;;;;;;;;22.61;46.90;100099.40;1640717;86;21514;-67
2022/07/12 08:03:18;;;;;;;;;;;;;;;22.70;45.87;100117.72;1638005;86;21932;-68
2022/07/12 08:05:44;;;;;;;;;;;;;;;22.65;45.97;100104.36;1637803;86;20171;-67
2022/07/12 08:08:11;;;;;;;;;;;;;;;22.47;46.80;100106.62;1640767;86;20193;-68
2022/07/12 08:10:37;;;;;;;;;;;;;;;22.42;47.00;100105.50;1637989;86;20148;-68
2022/07/12 08:13:04;;;;;;;;;;;;;;;22.32;46.43;100106.00;1638539;86;21227;-66
2022/07/12 08:15:31;;;;;;;;;;;;;;;22.28;46.29;100094.78;1639716;86;20189;-67
2022/07/12 08:17:59;;;;;;;;;;;;;;;22.41;46.75;100100.42;1668171;84;20437;-67
2022/07/12 08:20:26;;;;;;;;;;;;;;;22.44;45.17;100096.43;1663732;84;20211;-67
2022/07/12 08:22:52;;;;;;;;;;;;;;;22.41;46.05;100086.81;1662314;84;20151;-66
2022/07/12 08:25:19;;;;;;;;;;;;;;;22.53;45.88;100094.89;1662402;84;21223;-67
2022/07/12 08:27:46;;;;;;;;;;;;;;;22.67;46.23;100093.11;1663375;84;20138;-67
2022/07/12 08:30:12;;;;;;;;;;;;;;;22.89;46.75;100087.64;1663152;84;20147;-67
2022/07/12 08:32:45;;;;;;;;;;;;;;;23.08;45.11;100086.97;1663697;84;20482;-68
2022/07/12 08:35:11;;;;;;;;;;;;;;;23.16;44.21;100094.97;1663626;84;20491;-68
2022/07/12 08:37:38;;;;;;;;;;;;;;;22.95;44.24;100108.06;1663814;84;21813;-68
2022/07/12 08:40:05;;;;;;;;;;;;;;;22.74;44.92;100094.67;1662790;84;20820;-68
2022/07/12 08:42:33;;;;;;;;;;;;;;;22.55;45.71;100098.06;1663191;84;20552;-68
2022/07/12 08:44:59;;;;;;;;;;;;;;;22.25;47.23;100127.58;1663526;84;20548;-68
2022/07/12 08:47:26;;;;;;;;;;;;;;;21.86;50.81;100136.72;1663457;84;20190;-68
2022/07/12 08:50:12;;;;;;;;;;;;;;;21.47;52.55;100134.16;1662948;84;21873;-69
2022/07/12 08:52:41;;;;;;;;;;;;;;;21.05;53.59;100140.55;1664511;84;20206;-70
2022/07/12 08:55:20;;;;;;;;;;;;;;;20.68;54.09;100137.53;1663541;84;20235;-69
2022/07/12 08:57:48;;;;;;;;;;;;;;;20.53;55.59;100141.66;1654234;84;20164;-68
2022/07/12 09:00:15;;;;;;;;;;;;;;;20.39;57.02;100149.48;1663751;84;20191;-69
2022/07/12 09:02:50;;;;;;;;;;;;;;;20.27;56.98;100148.63;1663302;84;21783;-68
2022/07/12 09:05:18;;;;;;;;;;;;;;;20.17;57.55;100151.75;1663105;84;20224;-68
2022/07/12 09:07:46;;;;;;;;;;;;;;;20.14;58.77;100160.80;1662966;84;20172;-70
2022/07/12 09:10:12;;;;;;;;;;;;;;;20.15;59.47;100161.58;1662978;84;20199;-68
2022/07/12 09:12:41;;;;;;;;;;;;;;;20.11;59.03;100154.67;1663305;84;20232;-68
2022/07/12 09:15:19;;;;;;;;;;;;;;;20.04;58.40;100148.17;1663303;84;21544;-68
2022/07/12 09:18:01;;;;;;;;;;;;;;;20.06;58.32;100151.36;1661817;84;20410;-68
2022/07/12 09:20:36;;;;;;;;;;;;;;;20.18;58.82;100151.44;1663426;84;20161;-67
2022/07/12 09:23:09;;;;;;;;;;;;;;;20.45;59.33;100147.94;1662429;84;20144;-67
2022/07/12 09:25:38;;;;;;;;;;;;;;;20.79;59.05;100142.19;1665596;84;20218;-68
2022/07/12 09:28:06;;;;;;;;;;;;;;;21.14;57.80;100132.88;1663519;84;21110;-69
2022/07/12 09:30:36;;;;;;;;;;;;;;;21.41;56.47;100136.30;1667751;86;20150;-68
2022/07/12 09:36:12;;;;;;;;;;;;;;;22.07;56.65;100125.66;1664521;84;20170;-67
2022/07/12 09:38:40;;;;;;;;;;;;;;;22.57;55.05;100122.20;1665965;84;20183;-67
2022/07/12 09:41:07;;;;;;;;;;;;;;;22.75;51.58;100119.96;1668928;86;21231;-67
2022/07/12 09:43:35;;;;;;;;;;;;;;;22.95;52.61;100120.31;1668495;85;21152;-67
2022/07/12 09:46:02;;;;;;;;;;;;;;;23.30;53.25;100119.03;1667219;86;20184;-66
2022/07/12 09:48:28;;;;;;;;;;;;;;;23.70;52.04;100119.38;1668944;86;20146;-68
2022/07/12 09:50:56;;;;;;;;;;;;;;;24.13;49.79;100119.50;1668889;86;20173;-68
2022/07/12 09:53:29;;;;;;;;;;;;;;;24.27;47.93;100121.14;1669000;86;21123;-66
2022/07/12 09:55:56;;;;;;;;;;;;;;;24.36;47.33;100108.64;1668643;85;20172;-66
2022/07/12 09:58:34;;;;;;;;;;;;;;;24.52;47.29;100101.97;1640503;86;20212;-66
2022/07/12 10:01:01;;;;;;;;;;;;;;;24.63;46.24;100102.16;1667241;86;20235;-67
2022/07/12 10:03:31;;;;;;;;;;;;;;;24.56;44.23;100105.55;1668964;86;20137;-68
2022/07/12 10:05:59;;;;;;;;;;;;;;;24.21;45.33;100119.84;1668763;86;21131;-67
2022/07/12 10:08:25;;;;;;;;;;;;;;;23.72;46.26;100122.53;1668925;86;20153;-67
2022/07/12 10:10:52;;;;;;;;;;;;;;;23.18;48.02;100130.02;1668924;86;20196;-67
2022/07/12 10:13:19;;;;;;;;;;;;;;;22.63;47.50;100139.87;1665533;84;20227;-68
2022/07/12 10:15:47;;;;;;;;;;;;;;;22.10;49.34;100140.50;1656203;84;20140;-68
2022/07/12 10:18:18;;;;;;;;;;;;;;;21.61;50.00;100153.61;1664176;86;21097;-69
2022/07/12 10:20:47;;;;;;;;;;;;;;;21.21;50.95;100153.47;1668398;86;20233;-68
2022/07/12 10:23:34;;;;;;;;;;;;;;;20.93;50.99;100161.48;1666968;86;20188;-67
2022/07/12 10:26:10;;;;;;;;;;;;;;;20.71;51.15;100153.15;1668673;86;20154;-68
2022/07/12 10:28:57;;;;;;;;;;;;;;;20.58;49.33;100161.81;1670198;85;20175;-68
2022/07/12 10:31:42;;;;;;;;;;;;;;;20.58;48.46;100161.81;1668701;86;21745;-68
2022/07/12 10:34:24;;;;;;;;;;;;;;;20.61;49.32;100161.14;1668382;86;20628;-67
2022/07/12 10:37:00;;;;;;;;;;;;;;;20.76;49.84;100164.59;1667749;86;20199;-67
2022/07/12 10:39:27;;;;;;;;;;;;;;;20.92;50.21;100162.58;1668430;86;20464;-67
2022/07/12 10:42:20;;;;;;;;;;;;;;;21.04;49.19;100151.75;1668972;86;20156;-66
2022/07/12 10:45:04;;;;;;;;;;;;;;;21.07;48.95;100161.38;1660029;86;21129;-67
2022/07/12 10:47:55;;;;;;;;;;;;;;;21.19;49.19;100153.83;1652258;86;20141;-66
2022/07/12 10:50:55;;;;;;;;;;;;;;;21.29;48.67;100155.30;1654609;86;20176;-67
2022/07/12 10:53:29;;;;;;;;;;;;;;;21.38;49.00;100162.00;1663787;85;20402;-68
2022/07/12 10:56:20;;;;;;;;;;;;;;;21.51;49.00;100165.73;1663666;86;20178;-67
2022/07/12 10:58:56;;;;;;;;;;;;;;;21.68;48.46;100166.63;1665175;85;21154;-67
2022/07/12 11:01:30;;;;;;;;;;;;;;;21.87;48.46;100160.61;1653201;85;20133;-67
2022/07/12 11:04:15;;;;;;;;;;;;;;;22.02;48.73;100158.55;1661175;86;20154;-68
2022/07/12 11:06:49;;;;;;;;;;;;;;;22.24;48.64;100147.73;1668866;86;20479;-67
2022/07/12 11:09:18;;;;;;;;;;;;;;;22.46;48.29;100139.03;1668687;86;20153;-67
2022/07/12 11:11:56;;;;;;;;;;;;;;;22.70;48.49;100136.78;1668918;86;21247;-67
2022/07/12 11:14:30;;;;;;;;;;;;;;;22.94;47.36;100141.89;1668860;86;20179;-67
2022/07/12 11:17:06;;;;;;;;;;;;;;;23.09;43.55;100141.09;1669084;86;20465;-68
2022/07/12 11:19:42;;;;;;;;;;;;;;;23.14;42.70;100144.92;1668748;84;20198;-67
2022/07/12 11:22:32;;;;;;;;;;;;;;;23.20;42.83;100150.91;1638054;84;20464;-68
2022/07/12 11:25:20;;;;;;;;;;;;;;;23.32;42.92;100144.55;1668540;84;21114;-67
2022/07/12 11:27:52;;;;;;;;;;;;;;;23.46;42.88;100140.01;1664939;86;20130;-68
2022/07/12 11:30:26;;;;;;;;;;;;;;;23.52;40.59;100128.48;1664951;86;20157;-67
2022/07/12 11:33:01;;;;;;;;;;;;;;;23.56;40.58;100135.37;1666314;85;20134;-68
2022/07/12 11:35:36;;;;;;;;;;;;;;;23.61;41.16;100134.53;1668695;86;20440;-67
2022/07/12 11:38:10;;;;;;;;;;;;;;;23.65;42.48;100130.52;1668999;86;21134;-67
2022/07/12 11:40:49;;;;;;;;;;;;;;;23.76;42.47;100125.36;1664583;86;20193;-68
2022/07/12 11:43:22;;;;;;;;;;;;;;;23.89;41.99;100118.63;1668581;86;20209;-68
2022/07/12 11:45:50;;;;;;;;;;;;;;;24.10;41.29;100118.27;1667763;85;20425;-68
2022/07/12 11:48:19;;;;;;;;;;;;;;;24.27;40.28;100126.59;1636268;87;20475;-66
2022/07/12 11:50:46;;;;;;;;;;;;;;;24.43;40.31;100123.82;1649154;86;21137;-68
2022/07/12 11:53:17;;;;;;;;;;;;;;;24.50;40.01;100126.09;1645268;87;20161;-67
2022/07/12 11:55:45;;;;;;;;;;;;;;;24.38;40.15;100131.67;1645625;87;20193;-67
2022/07/12 11:58:13;;;;;;;;;;;;;;;24.19;40.08;100133.86;1645396;87;20239;-68
2022/07/12 12:00:40;;;;;;;;;;;;;;;24.13;41.14;100130.41;1659051;86;20143;-67
2022/07/12 12:03:07;;;;;;;;;;;;;;;24.17;40.20;100134.78;1646823;86;21146;-66
2022/07/12 12:05:34;;;;;;;;;;;;;;;24.29;38.95;100119.64;1645241;87;20145;-68
2022/07/12 12:08:01;;;;;;;;;;;;;;;24.34;39.22;100139.02;1660016;86;20158;-68
2022/07/12 12:10:28;;;;;;;;;;;;;;;24.34;39.07;100124.00;1661788;86;20135;-68
2022/07/12 12:12:56;;;;;;;;;;;;;;;24.37;38.50;100144.33;1659406;84;20179;-69
2022/07/12 12:15:24;;;;;;;;;;;;;;;24.09;38.47;100136.59;1657421;84;21146;-66
2022/07/12 12:17:53;;;;;;;;;;;;;;;23.87;39.45;100160.45;1656288;84;20287;-67
2022/07/12 12:20:23;;;;;;;;;;;;;;;23.71;39.44;100165.95;1655461;84;20328;-67
2022/07/12 12:22:53;;;;;;;;;;;;;;;23.53;39.79;100168.24;1656149;84;20258;-68
2022/07/12 12:25:22;;;;;;;;;;;;;;;23.31;39.24;100161.48;1661885;86;20136;-68
2022/07/12 12:28:03;;;;;;;;;;;;;;;23.09;39.68;100176.50;1661650;86;21139;-67
2022/07/12 12:30:31;;;;;;;;;;;;;;;22.91;39.88;100175.23;1662216;86;20333;-67
2022/07/12 12:33:00;;;;;;;;;;;;;;;22.77;40.50;100170.75;1666568;85;20441;-67
2022/07/12 12:35:34;;;;;;;;;;;;;;;22.56;40.86;100191.39;1656472;86;20507;-68
2022/07/12 12:38:05;;;;;;;;;;;;;;;22.36;41.77;100193.95;1657321;86;20178;-67
2022/07/12 12:40:34;;;;;;;;;;;;;;;22.27;42.74;100202.03;1660752;85;20136;-67
2022/07/12 12:43:12;;;;;;;;;;;;;;;22.23;43.73;100208.16;1661615;86;20156;-68
2022/07/12 12:45:55;;;;;;;;;;;;;;;22.16;43.18;100194.92;1661272;86;20143;-66
2022/07/12 12:48:26;;;;;;;;;;;;;;;22.00;42.44;100212.48;1660941;86;20187;-67
2022/07/12 12:50:54;;;;;;;;;;;;;;;21.72;43.03;100217.27;1633134;86;20143;-67
2022/07/12 12:53:24;;;;;;;;;;;;;;;21.39;43.94;100220.63;1661773;86;21800;-67
2022/07/12 12:55:51;;;;;;;;;;;;;;;21.07;45.22;100222.47;1660334;84;20434;-67
2022/07/12 12:58:21;;;;;;;;;;;;;;;20.87;46.03;100229.32;1661338;86;33249;-68
2022/07/12 13:00:49;;;;;;;;;;;;;;;20.66;46.30;100233.41;1661643;86;20160;-68
2022/07/12 13:03:18;;;;;;;;;;;;;;;20.45;45.13;100240.96;1661637;86;20219;-67
2022/07/12 13:05:44;;;;;;;;;;;;;;;20.32;44.57;100238.73;1655820;84;21101;-68